Time;durP1;ratioP1;P1;durP2;ratioP2;P2;SDS_P1;SDS_P2;PMS_P1;PMS_P2;Temp;Humidity;BMP_temperature;BMP_pressure;BME280_temperature;BME280_humidity;BME280_pressure;Samples;Min_cycle;Max_cycle;Signal;HPM_P1;HPM_P2
2022/10/18 00:01:31;;;;;;;5.90;3.22;;;12.80;90.00;;;;;;5010756;28;20240;-64
2022/10/18 00:03:58;;;;;;;5.05;2.40;;;12.80;90.00;;;;;;5013686;28;20188;-64
2022/10/18 00:06:25;;;;;;;4.53;2.55;;;12.80;90.20;;;;;;5013160;28;20190;-63
2022/10/18 00:08:53;;;;;;;6.47;3.22;;;12.70;90.20;;;;;;5013875;28;20202;-64
2022/10/18 00:11:20;;;;;;;5.80;3.17;;;12.80;90.20;;;;;;5011862;28;20189;-65
2022/10/18 00:13:48;;;;;;;6.40;3.03;;;12.70;90.10;;;;;;5013673;28;20188;-64
2022/10/18 00:16:18;;;;;;;5.20;3.00;;;12.80;90.40;;;;;;5012850;28;20224;-64
2022/10/18 00:18:46;;;;;;;4.63;3.20;;;12.70;90.50;;;;;;5015385;28;20192;-63
2022/10/18 00:21:18;;;;;;;7.30;3.00;;;12.80;90.40;;;;;;5014442;28;20196;-64
2022/10/18 00:23:46;;;;;;;4.43;2.90;;;12.80;90.30;;;;;;5015339;28;20214;-64
2022/10/18 00:26:16;;;;;;;6.00;2.90;;;12.70;90.10;;;;;;5013084;28;20207;-64
2022/10/18 00:28:43;;;;;;;8.30;5.13;;;12.60;90.00;;;;;;4995440;28;20193;-64
2022/10/18 00:31:15;;;;;;;14.10;9.35;;;12.50;90.20;;;;;;4995751;28;20559;-64
2022/10/18 00:33:45;;;;;;;14.43;10.07;;;12.30;90.00;;;;;;5015221;28;20214;-64
2022/10/18 00:36:13;;;;;;;15.07;8.38;;;12.30;90.30;;;;;;5005683;28;20212;-64
2022/10/18 00:38:41;;;;;;;10.85;6.63;;;12.30;90.50;;;;;;4995320;28;20201;-64
2022/10/18 00:41:11;;;;;;;10.20;7.00;;;12.30;90.60;;;;;;5002821;28;20214;-66
2022/10/18 00:43:55;;;;;;;11.75;7.15;;;12.20;90.60;;;;;;5014001;28;20219;-64
2022/10/18 00:46:24;;;;;;;8.85;5.30;;;12.20;90.90;;;;;;5004928;28;20698;-63
2022/10/18 00:48:52;;;;;;;6.13;4.65;;;12.30;91.20;;;;;;4994983;28;20656;-64
2022/10/18 00:51:21;;;;;;;6.55;4.32;;;12.30;91.30;;;;;;5003184;28;20194;-63
2022/10/18 00:53:49;;;;;;;6.78;4.07;;;12.30;91.20;;;;;;5014647;28;20231;-64
2022/10/18 00:56:17;;;;;;;4.55;3.67;;;12.40;91.00;;;;;;4993384;28;20610;-65
2022/10/18 00:58:46;;;;;;;6.15;2.95;;;12.30;90.70;;;;;;4994747;28;20235;-64
2022/10/18 01:01:13;;;;;;;9.05;3.33;;;12.20;90.70;;;;;;5011435;28;20188;-63
2022/10/18 01:03:41;;;;;;;8.13;3.85;;;12.10;90.50;;;;;;5014687;28;20791;-64
2022/10/18 01:06:09;;;;;;;6.50;3.90;;;12.00;90.60;;;;;;5011778;28;20188;-64
2022/10/18 01:08:58;;;;;;;4.75;3.47;;;12.00;90.70;;;;;;5014306;28;20199;-64
2022/10/18 01:11:40;;;;;;;5.13;4.60;;;12.00;90.70;;;;;;4996894;28;20267;-63
2022/10/18 01:14:17;;;;;;;6.53;4.10;;;12.00;90.50;;;;;;4994829;28;20192;-63
2022/10/18 01:16:52;;;;;;;4.70;3.10;;;12.00;90.60;;;;;;4994547;28;20609;-64
2022/10/18 01:19:53;;;;;;;5.72;2.65;;;12.00;90.70;;;;;;4994717;28;20193;-63
2022/10/18 01:22:26;;;;;;;3.83;2.90;;;12.00;90.80;;;;;;4984301;28;20647;-63
2022/10/18 01:25:08;;;;;;;4.35;3.40;;;11.90;90.80;;;;;;4994458;28;20192;-63
2022/10/18 01:27:49;;;;;;;6.25;3.20;;;11.90;90.40;;;;;;4996994;28;20239;-64
2022/10/18 01:30:39;;;;;;;4.60;2.75;;;11.90;90.40;;;;;;5014061;28;20203;-64
2022/10/18 01:33:15;;;;;;;4.32;3.17;;;11.90;90.90;;;;;;5006974;28;20189;-63
2022/10/18 01:35:47;;;;;;;3.30;2.35;;;11.80;90.90;;;;;;4994544;28;20588;-64
2022/10/18 01:38:17;;;;;;;6.05;3.17;;;11.70;90.40;;;;;;5000208;28;20228;-64
2022/10/18 01:40:47;;;;;;;4.78;2.95;;;11.50;90.10;;;;;;5013935;28;20196;-64
2022/10/18 01:43:16;;;;;;;7.55;3.00;;;11.50;90.00;;;;;;5006511;28;20195;-64
2022/10/18 01:45:45;;;;;;;8.20;2.70;;;11.30;90.00;;;;;;4994127;28;20556;-63
2022/10/18 01:48:14;;;;;;;3.30;2.80;;;11.20;90.20;;;;;;4999276;28;20184;-64
2022/10/18 01:50:41;;;;;;;5.05;3.42;;;11.20;90.60;;;;;;5009482;28;20185;-64
2022/10/18 01:53:25;;;;;;;5.68;3.20;;;11.10;90.80;;;;;;4993979;28;20647;-64
2022/10/18 01:56:16;;;;;;;4.45;3.10;;;11.20;90.90;;;;;;4997996;28;20227;-64
2022/10/18 01:58:49;;;;;;;6.30;3.53;;;11.20;91.20;;;;;;5013418;28;20195;-64
2022/10/18 02:01:28;;;;;;;4.15;3.10;;;11.20;91.30;;;;;;5005778;28;20184;-64
2022/10/18 02:04:01;;;;;;;5.45;2.78;;;11.20;91.50;;;;;;4993929;28;20228;-68
2022/10/18 02:06:32;;;;;;;11.68;3.42;;;11.30;91.60;;;;;;5002040;28;20677;-64
2022/10/18 02:09:07;;;;;;;5.82;3.13;;;11.30;91.80;;;;;;5013443;28;20698;-65
2022/10/18 02:11:38;;;;;;;5.85;3.50;;;11.30;91.80;;;;;;5003431;28;20195;-65
2022/10/18 02:14:13;;;;;;;4.47;3.30;;;11.40;92.10;;;;;;4993808;28;20219;-64
2022/10/18 02:16:44;;;;;;;3.75;2.88;;;11.40;92.20;;;;;;5002175;28;20218;-64
2022/10/18 02:19:15;;;;;;;5.60;3.50;;;11.50;92.10;;;;;;5005310;28;20267;-64
2022/10/18 02:21:45;;;;;;;6.88;4.00;;;11.50;91.80;;;;;;4993578;28;20196;-64
2022/10/18 02:24:14;;;;;;;4.07;2.85;;;11.50;91.50;;;;;;4998248;28;20191;-64
2022/10/18 02:26:41;;;;;;;4.53;2.90;;;11.50;91.20;;;;;;5012898;28;20241;-64
2022/10/18 02:29:09;;;;;;;5.88;3.28;;;11.40;90.50;;;;;;5005531;28;20200;-64
2022/10/18 02:31:40;;;;;;;4.68;3.42;;;11.30;90.10;;;;;;5002187;28;20219;-64
2022/10/18 02:34:16;;;;;;;9.52;2.80;;;11.20;90.40;;;;;;5006877;28;20206;-64
2022/10/18 02:36:46;;;;;;;5.63;3.38;;;11.00;90.80;;;;;;4993127;28;20286;-63
2022/10/18 02:39:17;;;;;;;4.10;2.78;;;11.00;90.90;;;;;;4998536;28;20273;-64
2022/10/18 02:41:44;;;;;;;9.93;3.20;;;11.00;91.00;;;;;;5012609;28;20218;-63
2022/10/18 02:44:12;;;;;;;5.05;2.80;;;11.00;91.00;;;;;;5007447;28;20185;-63
2022/10/18 02:46:40;;;;;;;7.40;2.88;;;10.90;90.90;;;;;;4992910;28;20203;-64
2022/10/18 02:49:08;;;;;;;7.05;3.10;;;10.90;91.10;;;;;;4996521;28;20562;-64
2022/10/18 02:51:36;;;;;;;4.70;3.72;;;10.90;91.50;;;;;;5012483;28;20515;-64
2022/10/18 02:54:03;;;;;;;6.63;4.22;;;11.00;91.70;;;;;;5009228;28;20184;-63
2022/10/18 02:56:30;;;;;;;8.60;4.43;;;11.00;91.80;;;;;;4991944;28;20228;-64
2022/10/18 02:58:57;;;;;;;5.53;4.22;;;11.10;91.90;;;;;;4993839;28;20195;-64
2022/10/18 03:01:24;;;;;;;5.63;4.13;;;11.20;91.90;;;;;;4992928;28;20207;-64
2022/10/18 03:03:51;;;;;;;7.82;3.42;;;11.20;91.80;;;;;;4995015;28;20687;-64
2022/10/18 03:06:20;;;;;;;5.20;3.88;;;11.20;92.00;;;;;;5012581;28;20200;-64
2022/10/18 03:08:47;;;;;;;5.38;3.78;;;11.30;92.10;;;;;;5010273;28;20622;-63
2022/10/18 03:11:14;;;;;;;6.45;4.28;;;11.30;91.70;;;;;;4992911;28;20215;-64
2022/10/18 03:13:42;;;;;;;8.57;3.38;;;11.30;91.80;;;;;;4992432;28;20207;-65
2022/10/18 03:16:09;;;;;;;7.28;3.67;;;11.30;91.50;;;;;;5012216;28;20251;-63
2022/10/18 03:18:36;;;;;;;10.48;3.50;;;11.20;90.90;;;;;;4996269;28;20648;-64
2022/10/18 03:21:05;;;;;;;8.15;3.55;;;11.10;91.20;;;;;;4992542;28;20204;-64
2022/10/18 03:23:34;;;;;;;5.70;3.55;;;11.10;91.40;;;;;;5006352;28;20195;-64
2022/10/18 03:26:01;;;;;;;6.43;4.32;;;11.10;91.30;;;;;;5011631;28;20214;-64
2022/10/18 03:28:29;;;;;;;5.80;3.40;;;11.10;91.10;;;;;;5010486;28;20282;-63
2022/10/18 03:31:01;;;;;;;7.05;2.88;;;11.10;91.00;;;;;;5012093;28;20274;-63
2022/10/18 03:33:28;;;;;;;5.68;2.65;;;11.10;91.20;;;;;;4996209;28;20657;-63
2022/10/18 03:35:56;;;;;;;4.80;2.40;;;11.10;91.20;;;;;;4992337;28;20306;-63
2022/10/18 03:38:23;;;;;;;5.57;2.92;;;11.10;90.90;;;;;;5006409;28;20196;-64
2022/10/18 03:40:52;;;;;;;3.40;2.60;;;11.00;90.90;;;;;;5011920;28;20191;-65
2022/10/18 03:43:19;;;;;;;5.45;3.05;;;11.00;91.10;;;;;;5007606;28;20552;-64
2022/10/18 03:45:46;;;;;;;6.38;2.90;;;11.00;90.90;;;;;;5011946;28;20192;-64
2022/10/18 03:48:13;;;;;;;6.32;3.55;;;10.90;91.00;;;;;;5008933;28;20184;-64
2022/10/18 03:50:41;;;;;;;7.63;2.95;;;10.90;91.00;;;;;;5011222;28;20651;-64
2022/10/18 03:53:08;;;;;;;4.28;2.95;;;10.90;91.00;;;;;;5000064;28;20275;-64
2022/10/18 03:55:36;;;;;;;4.07;3.17;;;10.80;91.40;;;;;;4991677;28;20195;-64
2022/10/18 03:58:05;;;;;;;4.40;2.95;;;10.70;91.80;;;;;;4991910;28;20222;-63
2022/10/18 04:00:32;;;;;;;5.43;3.55;;;10.80;92.00;;;;;;5011890;28;20188;-64
2022/10/18 04:02:59;;;;;;;7.35;3.38;;;10.80;92.30;;;;;;5012670;28;20192;-64
2022/10/18 04:05:29;;;;;;;7.22;3.33;;;10.80;92.30;;;;;;5011500;28;20334;-64
2022/10/18 04:07:56;;;;;;;8.43;3.85;;;10.80;92.40;;;;;;5014832;28;20242;-63
2022/10/18 04:10:25;;;;;;;3.70;3.20;;;10.80;92.20;;;;;;5008568;28;20188;-64
2022/10/18 04:12:54;;;;;;;6.25;3.20;;;10.80;92.20;;;;;;4996069;28;20212;-63
2022/10/18 04:15:22;;;;;;;7.90;4.95;;;10.80;92.30;;;;;;5001556;28;20188;-64
2022/10/18 04:17:50;;;;;;;6.40;4.28;;;10.80;92.10;;;;;;5015642;28;20219;-64
2022/10/18 04:20:18;;;;;;;7.43;4.07;;;10.80;92.10;;;;;;5010523;28;20188;-64
2022/10/18 04:22:45;;;;;;;7.60;3.65;;;10.70;92.10;;;;;;4995847;28;20200;-64
2022/10/18 04:25:12;;;;;;;4.32;2.88;;;10.70;92.20;;;;;;4999004;28;20219;-64
2022/10/18 04:27:39;;;;;;;5.35;3.58;;;10.60;92.20;;;;;;5015208;28;20195;-64
2022/10/18 04:30:08;;;;;;;3.95;3.03;;;10.70;92.30;;;;;;5012686;28;20284;-63
2022/10/18 04:32:36;;;;;;;6.70;3.78;;;10.60;92.10;;;;;;4995996;28;20238;-64
2022/10/18 04:35:04;;;;;;;8.90;3.15;;;10.60;92.20;;;;;;4996707;28;20555;-64
2022/10/18 04:37:32;;;;;;;7.53;3.60;;;10.70;92.80;;;;;;5014778;28;20282;-63
2022/10/18 04:39:59;;;;;;;8.18;5.57;;;10.70;93.20;;;;;;5014819;28;20238;-64
2022/10/18 04:42:26;;;;;;;9.07;7.95;;;10.80;93.60;;;;;;4995687;28;20247;-64
2022/10/18 04:44:54;;;;;;;10.63;8.48;;;10.90;93.70;;;;;;5013738;28;20206;-64
2022/10/18 04:47:21;;;;;;;7.70;6.90;;;11.00;93.80;;;;;;5015247;28;20199;-63
2022/10/18 04:49:49;;;;;;;8.77;7.38;;;11.10;93.60;;;;;;4998228;28;20192;-64
2022/10/18 04:52:17;;;;;;;7.32;5.00;;;11.20;93.70;;;;;;4996342;28;20686;-64
2022/10/18 04:54:44;;;;;;;12.15;7.60;;;11.20;93.40;;;;;;4995468;28;20196;-64
2022/10/18 04:57:11;;;;;;;10.10;7.43;;;11.20;93.50;;;;;;5009856;28;20588;-64
2022/10/18 04:59:38;;;;;;;9.38;5.50;;;11.30;93.40;;;;;;5015022;28;20214;-64
2022/10/18 05:02:05;;;;;;;7.68;6.00;;;11.30;93.20;;;;;;5000836;28;20195;-64
2022/10/18 05:04:33;;;;;;;6.80;5.20;;;11.30;93.00;;;;;;5002021;28;20714;-64
2022/10/18 05:07:05;;;;;;;7.97;6.18;;;11.30;93.30;;;;;;5014931;28;20203;-64
2022/10/18 05:09:32;;;;;;;6.00;4.10;;;11.40;93.30;;;;;;5007034;28;20551;-64
2022/10/18 05:12:00;;;;;;;7.10;4.53;;;11.50;93.20;;;;;;4995148;28;20192;-64
2022/10/18 05:14:27;;;;;;;5.50;3.88;;;11.60;93.10;;;;;;5000172;28;20267;-64
2022/10/18 05:16:54;;;;;;;4.63;3.28;;;11.60;93.10;;;;;;5014355;28;20401;-64
2022/10/18 05:19:22;;;;;;;8.00;5.15;;;11.70;92.90;;;;;;5003906;28;20231;-64
2022/10/18 05:21:49;;;;;;;5.82;4.40;;;11.70;93.00;;;;;;4994883;28;20200;-65
2022/10/18 05:24:18;;;;;;;8.18;5.57;;;11.70;92.90;;;;;;5002134;28;20646;-63
2022/10/18 05:26:45;;;;;;;7.65;6.20;;;11.80;93.00;;;;;;5008710;28;20664;-64
2022/10/18 05:29:13;;;;;;;8.82;5.10;;;11.80;93.00;;;;;;4994657;28;20246;-64
2022/10/18 05:31:40;;;;;;;6.35;5.15;;;11.90;93.00;;;;;;4998233;28;20180;-64
2022/10/18 05:34:07;;;;;;;7.30;5.32;;;11.90;93.00;;;;;;5014249;28;20198;-63
2022/10/18 05:36:35;;;;;;;6.45;4.47;;;12.00;93.00;;;;;;5010553;28;20258;-64
2022/10/18 05:39:07;;;;;;;10.40;4.28;;;12.00;93.00;;;;;;4994649;28;20228;-63
2022/10/18 05:41:36;;;;;;;8.85;5.00;;;12.00;92.90;;;;;;4995867;28;20282;-63
2022/10/18 05:44:05;;;;;;;11.00;5.65;;;12.00;92.90;;;;;;5011305;28;20271;-63
2022/10/18 05:46:33;;;;;;;6.65;4.85;;;12.10;93.00;;;;;;5011045;28;20200;-64
2022/10/18 05:49:01;;;;;;;7.07;5.75;;;12.00;92.90;;;;;;5012501;28;20585;-64
2022/10/18 05:51:28;;;;;;;8.18;4.70;;;12.10;92.80;;;;;;5010377;28;20270;-64
2022/10/18 05:53:55;;;;;;;6.97;5.15;;;12.10;92.80;;;;;;5012035;28;20196;-63
2022/10/18 05:56:22;;;;;;;8.13;3.22;;;12.10;92.80;;;;;;5011287;28;21043;-64
2022/10/18 05:58:52;;;;;;;6.22;4.13;;;12.10;92.90;;;;;;5012140;28;20246;-64
2022/10/18 06:01:20;;;;;;;9.48;5.47;;;12.20;93.00;;;;;;5010611;28;20183;-64
2022/10/18 06:03:48;;;;;;;6.65;4.20;;;12.30;93.20;;;;;;5012139;28;20198;-64
2022/10/18 06:06:15;;;;;;;9.27;4.65;;;12.30;93.20;;;;;;5010999;28;20219;-64
2022/10/18 06:08:44;;;;;;;6.20;4.20;;;12.40;93.20;;;;;;5011841;28;20595;-65
2022/10/18 06:11:13;;;;;;;6.47;4.10;;;12.40;93.20;;;;;;5011394;28;20191;-64
2022/10/18 06:13:41;;;;;;;13.63;6.13;;;12.40;93.00;;;;;;5011865;28;20195;-64
2022/10/18 06:16:10;;;;;;;11.98;8.75;;;12.40;93.10;;;;;;5007987;28;20181;-65
2022/10/18 06:18:38;;;;;;;13.88;6.35;;;12.40;93.30;;;;;;5007271;28;20225;-65
2022/10/18 06:21:05;;;;;;;11.23;7.15;;;12.40;93.60;;;;;;5007353;28;20200;-68
2022/10/18 06:23:33;;;;;;;8.27;6.18;;;12.50;93.60;;;;;;5008768;28;20188;-64
2022/10/18 06:26:01;;;;;;;9.73;5.80;;;12.50;93.40;;;;;;5010897;28;20195;-64
2022/10/18 06:28:29;;;;;;;10.63;6.10;;;12.60;93.30;;;;;;5009255;28;20274;-64
2022/10/18 06:30:56;;;;;;;14.13;7.40;;;12.70;93.30;;;;;;5009705;28;20202;-64
2022/10/18 06:33:25;;;;;;;9.30;6.18;;;12.70;93.10;;;;;;5008148;28;20326;-65
2022/10/18 06:35:56;;;;;;;8.55;6.70;;;12.80;93.10;;;;;;5010991;28;20195;-64
2022/10/18 06:38:23;;;;;;;9.43;6.53;;;12.90;93.10;;;;;;5011546;28;20234;-64
2022/10/18 06:40:50;;;;;;;10.90;6.18;;;13.00;93.20;;;;;;5010429;28;20196;-64
2022/10/18 06:43:17;;;;;;;8.82;6.05;;;13.10;93.30;;;;;;5010776;28;20192;-64
2022/10/18 06:45:44;;;;;;;8.18;6.10;;;13.20;93.30;;;;;;5009929;28;20227;-66
2022/10/18 06:48:11;;;;;;;14.23;8.23;;;13.30;93.30;;;;;;5009960;28;20309;-64
2022/10/18 06:50:40;;;;;;;10.23;6.80;;;13.70;93.50;;;;;;5010502;28;20597;-64
2022/10/18 06:53:07;;;;;;;10.80;7.13;;;14.10;93.30;;;;;;5009303;28;20188;-65
2022/10/18 06:55:35;;;;;;;12.50;6.25;;;14.40;92.70;;;;;;5010904;28;20198;-64
2022/10/18 06:58:02;;;;;;;10.73;5.65;;;14.50;92.00;;;;;;5009996;28;20600;-65
2022/10/18 07:00:29;;;;;;;11.67;6.77;;;14.50;91.40;;;;;;5007524;28;20192;-65
2022/10/18 07:02:58;;;;;;;6.73;5.00;;;14.50;91.30;;;;;;5002913;28;20430;-65
2022/10/18 07:05:25;;;;;;;9.67;5.90;;;14.50;91.40;;;;;;5006604;28;20431;-64
2022/10/18 07:07:53;;;;;;;6.30;4.93;;;14.60;91.60;;;;;;5011120;28;20435;-65
2022/10/18 07:10:21;;;;;;;7.23;5.40;;;14.70;91.90;;;;;;5010832;28;20439;-65
2022/10/18 07:12:48;;;;;;;7.73;4.80;;;14.90;91.80;;;;;;5010806;28;20518;-65
2022/10/18 07:15:16;;;;;;;8.80;5.53;;;15.50;92.30;;;;;;5008061;28;20431;-65
2022/10/18 07:17:44;;;;;;;7.30;5.20;;;16.70;91.10;;;;;;5010016;28;20497;-64
2022/10/18 07:20:11;;;;;;;7.97;5.30;;;17.80;89.30;;;;;;5009850;28;20447;-64
2022/10/18 07:22:38;;;;;;;7.27;5.07;;;18.90;83.90;;;;;;5010575;28;20518;-65
2022/10/18 07:25:07;;;;;;;7.47;4.57;;;19.50;76.40;;;;;;5011160;28;20731;-65
2022/10/18 07:27:37;;;;;;;4.33;3.73;;;19.50;74.00;;;;;;5010932;28;20449;-65
2022/10/18 07:30:05;;;;;;;6.63;3.07;;;20.00;74.00;;;;;;5007462;28;20477;-65
2022/10/18 07:32:32;;;;;;;6.30;3.40;;;21.00;70.60;;;;;;5011356;28;20500;-66
2022/10/18 07:35:00;;;;;;;6.93;3.60;;;22.00;65.40;;;;;;5011466;28;20474;-65
2022/10/18 07:37:27;;;;;;;4.70;2.93;;;22.90;61.40;;;;;;5010421;28;20501;-65
2022/10/18 07:39:54;;;;;;;7.40;3.60;;;23.80;60.30;;;;;;5011066;28;20438;-65
2022/10/18 07:42:22;;;;;;;5.80;2.70;;;24.20;56.30;;;;;;5012979;28;20821;-65
2022/10/18 07:44:49;;;;;;;6.10;3.10;;;24.10;53.50;;;;;;5014887;28;20445;-63
2022/10/18 07:47:17;;;;;;;7.97;3.10;;;23.60;53.40;;;;;;5015178;28;20443;-62
2022/10/18 07:49:43;;;;;;;3.80;2.50;;;23.00;54.30;;;;;;5015094;28;20533;-63
2022/10/18 07:52:11;;;;;;;5.40;2.70;;;22.60;55.80;;;;;;5015155;28;20434;-62
2022/10/18 07:54:38;;;;;;;7.50;2.80;;;22.30;55.70;;;;;;5014524;28;20500;-63
2022/10/18 07:57:05;;;;;;;3.90;2.93;;;22.30;57.80;;;;;;5014800;28;20443;-62
2022/10/18 07:59:33;;;;;;;5.53;3.23;;;23.00;56.60;;;;;;5014941;28;20474;-62
2022/10/18 08:02:00;;;;;;;6.03;3.30;;;24.40;54.50;;;;;;5015004;28;20450;-62
2022/10/18 08:04:27;;;;;;;6.93;3.23;;;25.20;50.90;;;;;;5014018;28;20504;-64
2022/10/18 08:06:54;;;;;;;5.03;3.10;;;24.60;50.00;;;;;;5014934;28;20434;-63
2022/10/18 08:09:21;;;;;;;5.83;3.87;;;24.10;50.60;;;;;;5014846;28;20568;-63
2022/10/18 08:11:48;;;;;;;6.60;3.03;;;24.40;51.70;;;;;;5014848;28;20492;-63
2022/10/18 08:14:15;;;;;;;5.63;3.00;;;25.20;50.00;;;;;;5014236;28;20849;-64
2022/10/18 08:16:43;;;;;;;5.23;3.13;;;26.10;49.00;;;;;;5014581;28;20926;-63
2022/10/18 08:19:10;;;;;;;7.20;2.83;;;26.90;46.90;;;;;;5014604;28;20544;-63
2022/10/18 08:21:37;;;;;;;4.87;2.90;;;27.20;46.10;;;;;;5014308;28;20443;-63
2022/10/18 08:24:05;;;;;;;5.43;3.10;;;27.00;45.60;;;;;;5014292;28;20443;-63
2022/10/18 08:26:32;;;;;;;5.93;3.47;;;27.00;46.00;;;;;;5014602;28;20508;-62
2022/10/18 08:28:59;;;;;;;5.20;3.20;;;27.10;44.80;;;;;;5014649;28;20448;-63
2022/10/18 08:31:26;;;;;;;6.10;2.60;;;27.20;45.40;;;;;;5014172;28;20438;-63
2022/10/18 08:33:56;;;;;;;3.93;2.57;;;27.40;43.20;;;;;;5013847;28;20438;-63
2022/10/18 08:36:24;;;;;;;4.77;2.60;;;28.80;43.00;;;;;;5014314;28;20473;-63
2022/10/18 08:38:51;;;;;;;4.77;2.17;;;30.10;38.90;;;;;;5014384;28;20486;-63
2022/10/18 08:42:02;;;;;;;4.53;2.60;;;30.40;36.90;;;;;;5013851;28;20493;-63
2022/10/18 08:44:32;;;;;;;3.17;2.63;;;30.10;36.60;;;;;;4972546;28;20476;-63
2022/10/18 08:47:04;;;;;;;4.73;2.77;;;30.60;34.80;;;;;;5004791;28;20840;-63
2022/10/18 08:49:39;;;;;;;5.90;2.40;;;32.30;32.80;;;;;;5014267;28;20435;-62
2022/10/18 08:52:15;;;;;;;4.80;2.00;;;34.40;31.70;;;;;;5013922;28;20496;-63
2022/10/18 08:54:54;;;;;;;4.70;2.40;;;37.00;28.90;;;;;;5012702;28;20728;-63
2022/10/18 08:57:21;;;;;;;6.10;2.67;;;39.00;25.50;;;;;;5013865;28;20438;-63
2022/10/18 08:59:48;;;;;;;7.03;2.30;;;39.30;22.10;;;;;;5013748;28;20529;-65
2022/10/18 09:02:35;;;;;;;3.40;2.10;;;39.00;22.30;;;;;;5009609;28;20442;-63
2022/10/18 09:05:13;;;;;;;6.83;3.23;;;39.40;21.70;;;;;;5013547;28;20453;-64
2022/10/18 09:08:08;;;;;;;5.33;2.43;;;40.80;22.80;;;;;;5013613;28;20969;-64
2022/10/18 09:10:44;;;;;;;5.17;2.70;;;42.10;19.20;;;;;;5011496;28;20497;-64
2022/10/18 09:13:27;;;;;;;3.10;2.27;;;43.60;19.40;;;;;;5009388;28;20442;-64
2022/10/18 09:15:58;;;;;;;4.93;3.10;;;44.80;16.30;;;;;;5013750;28;20450;-65
2022/10/18 09:18:43;;;;;;;4.77;2.50;;;43.90;17.20;;;;;;5009725;28;20496;-63
2022/10/18 09:21:21;;;;;;;10.30;9.30;;;43.10;16.70;;;;;;5012799;28;20478;-63
2022/10/18 09:23:50;;;;;;;5.73;3.50;;;42.00;18.40;;;;;;5013369;28;20442;-63
2022/10/18 09:26:19;;;;;;;4.33;2.70;;;42.00;19.60;;;;;;5013228;28;20544;-63
2022/10/18 09:29:04;;;;;;;6.73;2.40;;;43.10;19.80;;;;;;5012830;28;20483;-63
2022/10/18 09:31:39;;;;;;;6.10;2.40;;;44.20;18.10;;;;;;5012918;28;20442;-64
2022/10/18 09:34:12;;;;;;;4.13;2.30;;;43.10;18.00;;;;;;5013011;28;20493;-63
2022/10/18 09:36:41;;;;;;;4.07;2.30;;;42.00;18.10;;;;;;5013044;28;20462;-63
2022/10/18 09:39:13;;;;;;;4.33;2.50;;;40.60;20.10;;;;;;5008664;28;20474;-64
2022/10/18 09:41:47;;;;;;;3.63;2.60;;;39.90;19.80;;;;;;5013100;28;20443;-63
2022/10/18 09:44:18;;;;;;;4.10;2.57;;;38.70;21.50;;;;;;5012714;28;20443;-63
2022/10/18 09:46:49;;;;;;;5.90;2.67;;;37.10;21.40;;;;;;5013233;28;20995;-63
2022/10/18 09:49:19;;;;;;;3.67;2.00;;;35.70;22.90;;;;;;5012987;28;20491;-63
2022/10/18 09:51:49;;;;;;;11.33;2.80;;;34.50;24.50;;;;;;5012280;28;20958;-63
2022/10/18 09:54:23;;;;;;;3.30;2.40;;;33.90;25.30;;;;;;5012322;28;20501;-63
2022/10/18 09:56:54;;;;;;;8.90;2.30;;;33.40;26.30;;;;;;5012570;28;20504;-64
2022/10/18 09:59:37;;;;;;;3.63;2.20;;;33.00;28.60;;;;;;5009103;28;20781;-64
2022/10/18 10:02:04;;;;;;;7.43;2.57;;;32.70;28.70;;;;;;5012151;28;20475;-63
2022/10/18 10:04:31;;;;;;;3.90;2.00;;;33.40;29.50;;;;;;5011781;28;20438;-63
2022/10/18 10:07:02;;;;;;;3.23;2.43;;;33.80;27.20;;;;;;5012708;28;20481;-63
2022/10/18 10:09:31;;;;;;;4.93;2.10;;;33.50;26.00;;;;;;5012533;28;20522;-64
2022/10/18 10:11:59;;;;;;;3.53;2.20;;;32.90;26.80;;;;;;5008237;28;20912;-62
2022/10/18 10:14:29;;;;;;;9.30;2.43;;;32.50;27.10;;;;;;5012073;28;20454;-63
2022/10/18 10:16:58;;;;;;;3.87;2.47;;;32.20;27.30;;;;;;5012327;28;20947;-62
2022/10/18 10:19:31;;;;;;;4.10;2.33;;;32.00;27.30;;;;;;5012013;28;20446;-63
2022/10/18 10:22:03;;;;;;;6.00;2.30;;;32.40;28.50;;;;;;5012279;28;20843;-62
2022/10/18 10:24:37;;;;;;;6.40;1.70;;;32.80;27.10;;;;;;5011552;28;20782;-64
2022/10/18 10:27:10;;;;;;;5.30;2.33;;;33.30;28.10;;;;;;5008695;28;20434;-67
2022/10/18 10:29:52;;;;;;;4.73;2.50;;;36.00;28.40;;;;;;5012281;28;20956;-62
2022/10/18 10:32:22;;;;;;;4.93;2.57;;;38.90;24.80;;;;;;5012302;28;20523;-63
2022/10/18 10:34:49;;;;;;;6.40;2.10;;;41.20;20.80;;;;;;5012280;28;20447;-63
2022/10/18 10:37:30;;;;;;;5.43;2.50;;;43.30;21.10;;;;;;5011160;28;20524;-64
2022/10/18 10:40:20;;;;;;;3.80;2.33;;;45.30;19.10;;;;;;5010028;28;20771;-63
2022/10/18 10:43:06;;;;;;;3.90;2.80;;;47.30;16.80;;;;;;5009081;28;20446;-65
2022/10/18 10:45:37;;;;;;;5.70;2.67;;;48.90;15.70;;;;;;5008576;28;20497;-64
2022/10/18 10:48:16;;;;;;;6.53;2.67;;;49.90;14.40;;;;;;5011841;28;20447;-65
2022/10/18 10:51:00;;;;;;;4.20;1.90;;;50.10;14.40;;;;;;5008455;28;20443;-64
2022/10/18 10:53:43;;;;;;;3.93;1.93;;;50.90;15.30;;;;;;5011468;28;20431;-64
2022/10/18 10:56:23;;;;;;;6.30;2.80;;;51.80;13.50;;;;;;5008081;28;20465;-64
2022/10/18 10:58:52;;;;;;;6.77;2.40;;;52.60;12.40;;;;;;5009035;28;20430;-65
2022/10/18 11:01:25;;;;;;;6.00;2.17;;;53.00;12.50;;;;;;5010631;28;20897;-63
2022/10/18 11:03:54;;;;;;;6.60;2.17;;;53.40;12.00;;;;;;5010028;28;20832;-64
2022/10/18 11:06:50;;;;;;;3.20;2.23;;;53.80;11.80;;;;;;5008999;28;20553;-63
2022/10/18 11:09:37;;;;;;;6.43;2.33;;;54.20;11.50;;;;;;5009122;28;20490;-64
2022/10/18 11:12:08;;;;;;;4.00;2.10;;;;;;;;;;5006397;28;20446;-64
2022/10/18 11:14:41;;;;;;;5.80;2.23;;;54.50;11.30;;;;;;5010275;28;20438;-64
2022/10/18 11:17:19;;;;;;;5.53;2.37;;;55.10;10.60;;;;;;5006229;28;20443;-64
2022/10/18 11:20:02;;;;;;;6.50;3.07;;;55.20;10.40;;;;;;5009384;28;20478;-63
2022/10/18 11:22:34;;;;;;;4.73;2.73;;;55.30;10.70;;;;;;5010347;28;20451;-64
2022/10/18 11:25:04;;;;;;;3.00;2.20;;;55.40;10.30;;;;;;5007860;28;20434;-66
2022/10/18 11:27:36;;;;;;;5.63;2.50;;;55.40;10.30;;;;;;5005539;28;20451;-64
2022/10/18 11:30:35;;;;;;;6.30;2.60;;;55.50;10.20;;;;;;5003819;28;20443;-63
2022/10/18 11:33:15;;;;;;;3.60;2.20;;;55.40;10.10;;;;;;5008470;28;20460;-64
2022/10/18 11:35:51;;;;;;;4.03;2.73;;;55.40;10.00;;;;;;5009115;28;20466;-65
2022/10/18 11:38:29;;;;;;;5.33;2.80;;;55.50;9.70;;;;;;5007927;28;20448;-66
2022/10/18 11:41:27;;;;;;;5.47;2.40;;;55.60;10.00;;;;;;5008109;28;20450;-64
2022/10/18 11:43:58;;;;;;;3.93;2.50;;;55.50;10.00;;;;;;5009011;28;20474;-64
2022/10/18 11:46:47;;;;;;;3.93;2.07;;;55.40;10.00;;;;;;5005403;28;20450;-64
2022/10/18 11:49:34;;;;;;;5.30;2.40;;;55.30;9.40;;;;;;5003874;28;20442;-64
2022/10/18 11:52:08;;;;;;;6.50;2.00;;;55.20;9.70;;;;;;5008358;28;20435;-64
2022/10/18 11:54:57;;;;;;;3.27;2.23;;;55.10;9.60;;;;;;5011476;28;20505;-65
2022/10/18 11:57:39;;;;;;;6.23;2.50;;;55.00;9.60;;;;;;5012361;28;20486;-63
2022/10/18 12:00:23;;;;;;;2.80;1.80;;;55.00;9.70;;;;;;5012774;28;20477;-64
2022/10/18 12:03:22;;;;;;;7.33;2.23;;;54.90;9.30;;;;;;5012754;28;20441;-63
2022/10/18 12:05:51;;;;;;;5.00;2.20;;;53.00;9.60;;;;;;5011960;28;20910;-65
2022/10/18 12:08:23;;;;;;;4.20;2.00;;;52.30;10.40;;;;;;5012441;28;20493;-63
2022/10/18 12:10:55;;;;;;;4.20;2.80;;;52.50;10.10;;;;;;5012714;28;20431;-63
2022/10/18 12:13:30;;;;;;;6.00;2.60;;;51.80;10.20;;;;;;5012101;28;20956;-63
2022/10/18 12:15:57;;;;;;;3.33;2.13;;;51.70;10.80;;;;;;5012794;28;20629;-63
2022/10/18 12:18:31;;;;;;;2.77;1.70;;;52.20;10.80;;;;;;5012533;28;20789;-63
2022/10/18 12:21:00;;;;;;;4.37;1.93;;;52.40;10.50;;;;;;5012517;28;20470;-63
2022/10/18 12:23:37;;;;;;;6.40;2.47;;;52.60;10.60;;;;;;5012463;28;20431;-63
2022/10/18 12:26:09;;;;;;;4.00;1.70;;;52.60;10.70;;;;;;5012657;28;20504;-64
2022/10/18 12:28:49;;;;;;;4.70;2.30;;;52.50;10.70;;;;;;5014429;28;20466;-63
2022/10/18 12:31:24;;;;;;;6.20;2.83;;;52.40;10.60;;;;;;5015997;28;20497;-63
2022/10/18 12:33:55;;;;;;;8.00;2.00;;;52.40;10.60;;;;;;5015917;28;20434;-63
2022/10/18 12:36:54;;;;;;;9.57;2.07;;;52.20;10.70;;;;;;5015528;28;20456;-63
2022/10/18 12:39:28;;;;;;;7.80;2.60;;;52.00;10.80;;;;;;5015892;28;20482;-63
2022/10/18 12:41:56;;;;;;;4.07;2.57;;;51.80;10.70;;;;;;5015717;28;20430;-65
2022/10/18 12:44:31;;;;;;;5.37;2.00;;;51.50;10.70;;;;;;5015317;28;20971;-64
2022/10/18 12:47:00;;;;;;;4.80;2.60;;;51.30;11.40;;;;;;5015656;28;20815;-64
2022/10/18 12:49:31;;;;;;;6.50;2.10;;;51.10;10.90;;;;;;5015444;28;20798;-63
2022/10/18 12:52:03;;;;;;;4.17;1.97;;;50.50;11.00;;;;;;5015580;28;20430;-64
2022/10/18 12:54:34;;;;;;;4.67;2.50;;;49.40;11.70;;;;;;5015699;28;20514;-63
2022/10/18 12:57:03;;;;;;;5.23;2.60;;;48.60;11.60;;;;;;5015546;28;20419;-63
2022/10/18 12:59:52;;;;;;;4.60;2.70;;;46.70;11.80;;;;;;5015304;28;20505;-63
2022/10/18 13:02:30;;;;;;;4.63;2.27;;;45.00;13.30;;;;;;5015446;28;20746;-62
2022/10/18 13:05:01;;;;;;;5.27;2.60;;;43.50;13.80;;;;;;5015110;28;20434;-63
2022/10/18 13:07:41;;;;;;;4.17;2.50;;;42.00;15.30;;;;;;5015128;28;21103;-62